sensor_id;sensor_type;location;lat;lon;timestamp;pressure;altitude;pressure_sealevel;temperature;humidity
61105;BME280;46987;32.638;-115.438;2022-07-29T00:00:13;100489.56;;;40.37;18.78
61105;BME280;46987;32.638;-115.438;2022-07-29T00:02:41;100494.19;;;40.22;18.71
61105;BME280;46987;32.638;-115.438;2022-07-29T00:05:09;100493.16;;;40.04;18.67
61105;BME280;46987;32.638;-115.438;2022-07-29T00:07:37;100505.44;;;39.92;18.98
61105;BME280;46987;32.638;-115.438;2022-07-29T00:10:05;100496.50;;;39.83;19.06
61105;BME280;46987;32.638;-115.438;2022-07-29T00:12:33;100490.41;;;39.77;19.17
61105;BME280;46987;32.638;-115.438;2022-07-29T00:15:00;100491.59;;;39.76;18.98
61105;BME280;46987;32.638;-115.438;2022-07-29T00:17:29;100495.19;;;39.77;19.04
61105;BME280;46987;32.638;-115.438;2022-07-29T00:19:56;100487.91;;;39.72;19.02
61105;BME280;46987;32.638;-115.438;2022-07-29T00:22:26;100484.59;;;39.63;19.14
61105;BME280;46987;32.638;-115.438;2022-07-29T00:24:53;100495.00;;;39.63;19.14
61105;BME280;46987;32.638;-115.438;2022-07-29T00:27:21;100496.19;;;39.62;19.26
61105;BME280;46987;32.638;-115.438;2022-07-29T00:29:48;100491.41;;;39.62;19.04
61105;BME280;46987;32.638;-115.438;2022-07-29T00:32:16;100485.28;;;39.57;19.06
61105;BME280;46987;32.638;-115.438;2022-07-29T00:34:44;100482.09;;;39.55;19.30
61105;BME280;46987;32.638;-115.438;2022-07-29T00:37:30;100480.38;;;39.46;19.22
61105;BME280;46987;32.638;-115.438;2022-07-29T00:39:58;100463.31;;;39.32;19.40
61105;BME280;46987;32.638;-115.438;2022-07-29T00:42:25;100481.31;;;39.31;19.27
61105;BME280;46987;32.638;-115.438;2022-07-29T00:44:54;100443.00;;;39.13;19.33
61105;BME280;46987;32.638;-115.438;2022-07-29T00:47:21;100476.41;;;39.25;19.55
61105;BME280;46987;32.638;-115.438;2022-07-29T00:49:50;100459.31;;;39.07;19.55
61105;BME280;46987;32.638;-115.438;2022-07-29T00:52:18;100471.28;;;39.04;19.80
61105;BME280;46987;32.638;-115.438;2022-07-29T00:54:47;100474.31;;;38.95;19.78
61105;BME280;46987;32.638;-115.438;2022-07-29T00:57:14;100464.13;;;38.84;19.94
61105;BME280;46987;32.638;-115.438;2022-07-29T00:59:42;100466.06;;;38.80;19.85
61105;BME280;46987;32.638;-115.438;2022-07-29T01:02:09;100461.81;;;38.66;20.16
61105;BME280;46987;32.638;-115.438;2022-07-29T01:04:36;100463.72;;;38.62;20.05
61105;BME280;46987;32.638;-115.438;2022-07-29T01:07:06;100462.44;;;38.56;20.31
61105;BME280;46987;32.638;-115.438;2022-07-29T01:09:35;100475.66;;;38.59;19.96
61105;BME280;46987;32.638;-115.438;2022-07-29T01:12:04;100471.13;;;38.51;20.08
61105;BME280;46987;32.638;-115.438;2022-07-29T01:14:32;100475.41;;;38.45;20.15
61105;BME280;46987;32.638;-115.438;2022-07-29T01:17:04;100478.88;;;38.39;20.29
61105;BME280;46987;32.638;-115.438;2022-07-29T01:19:46;100478.41;;;38.33;20.18
61105;BME280;46987;32.638;-115.438;2022-07-29T01:22:25;100478.72;;;38.28;20.33
61105;BME280;46987;32.638;-115.438;2022-07-29T01:25:11;100484.56;;;38.23;20.14
61105;BME280;46987;32.638;-115.438;2022-07-29T01:27:49;100487.56;;;38.14;20.34
61105;BME280;46987;32.638;-115.438;2022-07-29T01:30:20;100481.84;;;38.07;20.40
61105;BME280;46987;32.638;-115.438;2022-07-29T01:32:52;100470.06;;;37.98;20.47
61105;BME280;46987;32.638;-115.438;2022-07-29T01:35:25;100479.56;;;37.93;20.35
61105;BME280;46987;32.638;-115.438;2022-07-29T01:38:01;100468.06;;;37.79;20.18
61105;BME280;46987;32.638;-115.438;2022-07-29T01:40:39;100449.50;;;37.52;20.03
61105;BME280;46987;32.638;-115.438;2022-07-29T01:43:12;100467.16;;;37.56;20.39
61105;BME280;46987;32.638;-115.438;2022-07-29T01:45:48;100480.31;;;37.55;20.70
61105;BME280;46987;32.638;-115.438;2022-07-29T01:48:22;100475.91;;;37.39;21.23
61105;BME280;46987;32.638;-115.438;2022-07-29T01:50:50;100497.69;;;37.45;21.37
61105;BME280;46987;32.638;-115.438;2022-07-29T01:53:25;100499.91;;;37.24;21.85
61105;BME280;46987;32.638;-115.438;2022-07-29T01:55:54;100507.97;;;37.10;22.20
61105;BME280;46987;32.638;-115.438;2022-07-29T01:58:26;100510.38;;;36.96;22.25
61105;BME280;46987;32.638;-115.438;2022-07-29T02:00:57;100517.75;;;36.88;22.50
61105;BME280;46987;32.638;-115.438;2022-07-29T02:03:26;100525.88;;;36.77;22.60
61105;BME280;46987;32.638;-115.438;2022-07-29T02:05:59;100491.97;;;36.47;22.61
61105;BME280;46987;32.638;-115.438;2022-07-29T02:08:28;100530.41;;;36.54;22.97
61105;BME280;46987;32.638;-115.438;2022-07-29T02:10:57;100532.69;;;36.36;23.22
61105;BME280;46987;32.638;-115.438;2022-07-29T02:13:28;100537.59;;;36.27;23.57
61105;BME280;46987;32.638;-115.438;2022-07-29T02:15:57;100529.06;;;36.08;23.82
61105;BME280;46987;32.638;-115.438;2022-07-29T02:18:28;100535.84;;;35.95;24.20
61105;BME280;46987;32.638;-115.438;2022-07-29T02:20:59;100540.88;;;35.77;24.05
61105;BME280;46987;32.638;-115.438;2022-07-29T02:23:27;100541.09;;;35.60;23.85
61105;BME280;46987;32.638;-115.438;2022-07-29T02:25:56;100561.31;;;35.45;23.88
61105;BME280;46987;32.638;-115.438;2022-07-29T02:28:26;100539.81;;;35.21;24.01
61105;BME280;46987;32.638;-115.438;2022-07-29T02:30:58;100556.41;;;35.17;24.55
61105;BME280;46987;32.638;-115.438;2022-07-29T02:33:26;100554.78;;;35.16;24.40
61105;BME280;46987;32.638;-115.438;2022-07-29T02:35:55;100570.44;;;34.96;24.87
61105;BME280;46987;32.638;-115.438;2022-07-29T02:38:25;100570.69;;;34.83;24.86
61105;BME280;46987;32.638;-115.438;2022-07-29T02:41:16;100560.44;;;34.63;25.05
61105;BME280;46987;32.638;-115.438;2022-07-29T02:43:46;100576.81;;;34.64;25.23
61105;BME280;46987;32.638;-115.438;2022-07-29T02:46:21;100581.97;;;34.53;25.88
61105;BME280;46987;32.638;-115.438;2022-07-29T02:48:59;100591.56;;;34.44;25.71
61105;BME280;46987;32.638;-115.438;2022-07-29T02:51:34;100593.25;;;34.36;26.48
